CSL Niagara — VCGJ — position and weather

sailwx.info

Track history (hours):
 
Tides and Currents Weather Stations Pressure Air Temp Water Temp Dewpoint Dewpoint Depression Visibility Wind Speed Wind Dir Waves Ship Positions

CSL Niagara

ex J. W. McGiffin

Last reported at 2014-Jul-21 23:34 UTC. Time now 2014-Jul-24 01:53 UTC.
Position N 46°38' W 071°56'.

Length 225 m; draft 8.2 m.

Type: Cargo ship. MMSI: 316029000.

Date/timePositionNaut miles runAvg speedWind from/ knotsBaromVisibWave heightAir tempDewpointWater temp
2014-Jul-21 23:34N 46°38' W 071°56'1312.1
2014-Jul-21 22:29N 46°31' W 072°12'1011.2
2014-Jul-21 21:34N 46°24' W 072°24'1110.7
2014-Jul-21 20:34N 46°17' W 072°35'312.1
2014-Jul-21 20:18N 46°16' W 072°39'811.2
2014-Jul-21 19:34N 46°12' W 072°50'1311.5
2014-Jul-21 18:26N 46°04' W 073°04'8 9.4
2014-Jul-21 17:33N 45°58' W 073°12'1211.8
2014-Jul-21 16:33N 45°47' W 073°20'1211.9
2014-Jul-21 15:34N 45°37' W 073°30'8 7.8
2014-Jul-21 14:34N 45°30' W 073°31'1 0.7
2014-Jul-21 13:34N 45°29' W 073°31'5 4.5
2014-Jul-21 12:31N 45°24' W 073°33'1 1.3
2014-Jul-21 11:34N 45°24' W 073°34'4 4.2
2014-Jul-21 10:34N 45°25' W 073°40'8 7.6
2014-Jul-21 09:34N 45°22' W 073°50'5 4.5
2014-Jul-21 08:33N 45°19' W 073°55'1 0.8
2014-Jul-21 07:34N 45°18' W 073°56'2 2.3
2014-Jul-21 06:34N 45°16' W 073°57'9 9.3
2014-Jul-21 05:33N 45°14' W 074°10'1110.8
2014-Jul-21 04:34N 45°09' W 074°23'9 8.6
2014-Jul-21 03:33N 45°03' W 074°33'83 7.3
2014-Jul-20 16:07N 44°14' W 076°07'610.8
2014-Jul-20 15:33N 44°12' W 076°15'1010.4
2014-Jul-20 14:34N 44°05' W 076°25'165 5.7
2014-Jul-19 09:31N 42°37' W 079°38'1212.0
2014-Jul-19 08:34N 42°31' W 079°51'1211.8
2014-Jul-19 07:34N 42°25' W 080°05'1212.0
2014-Jul-19 06:34N 42°21' W 080°20'1211.6
2014-Jul-19 05:31N 42°17' W 080°36'260 7.4
2014-Jul-17 18:32N 45°56' W 083°52'11 9.7
2014-Jul-17 17:26N 46°04' W 084°01'36 4.0
2014-Jul-17 08:22N 46°31' W 084°38'911.5
2014-Jul-17 07:33N 46°38' W 084°46'  
2014-Jul-14 08:25N 46°50' W 085°05'1011.4
2014-Jul-14 07:33N 46°44' W 084°53'2311.3
2014-Jul-14 05:33N 46°27' W 084°30'293 7.1
2014-Jul-12 12:04N 42°12' W 081°08'612.3
2014-Jul-12 11:33N 42°15' W 081°00'1212.2
2014-Jul-12 10:34N 42°18' W 080°45'2512.2
2014-Jul-12 08:33N 42°27' W 080°14'1211.2
2014-Jul-12 07:29N 42°34' W 079°60'1111.8
2014-Jul-12 06:34N 42°44' W 080°02'3 3.1
2014-Jul-12 05:34N 42°47' W 080°05'0 0.0
2014-Jul-12 04:34N 42°47' W 080°05'0 0.0
2014-Jul-12 03:34N 42°47' W 080°05'0 0.0
2014-Jul-12 02:34N 42°47' W 080°05'0 0.0
2014-Jul-12 01:34N 42°47' W 080°05'0 0.0
2014-Jul-12 00:34N 42°47' W 080°05'0 0.0
2014-Jul-11 23:34N 42°47' W 080°05'  
Track history (hours):
 
Tides and Currents Weather Stations Pressure Air Temp Water Temp Dewpoint Dewpoint Depression Visibility Wind Speed Wind Dir Waves Ship Positions

CSL Niagara

ex J. W. McGiffin

Last reported at 2014-Jul-21 23:34 UTC. Time now 2014-Jul-24 01:53 UTC.
Position N 46°38' W 071°56'.

Length 225 m; draft 8.2 m.

Type: Cargo ship. MMSI: 316029000.

Date/timePositionNaut miles runAvg speedWind from/ knotsBaromVisibWave heightAir tempDewpointWater temp
2014-Jul-21 23:34N 46°38' W 071°56'1312.1
2014-Jul-21 22:29N 46°31' W 072°12'1011.2
2014-Jul-21 21:34N 46°24' W 072°24'1110.7
2014-Jul-21 20:34N 46°17' W 072°35'312.1
2014-Jul-21 20:18N 46°16' W 072°39'811.2
2014-Jul-21 19:34N 46°12' W 072°50'1311.5
2014-Jul-21 18:26N 46°04' W 073°04'8 9.4
2014-Jul-21 17:33N 45°58' W 073°12'1211.8
2014-Jul-21 16:33N 45°47' W 073°20'1211.9
2014-Jul-21 15:34N 45°37' W 073°30'8 7.8
2014-Jul-21 14:34N 45°30' W 073°31'1 0.7
2014-Jul-21 13:34N 45°29' W 073°31'5 4.5
2014-Jul-21 12:31N 45°24' W 073°33'1 1.3
2014-Jul-21 11:34N 45°24' W 073°34'4 4.2
2014-Jul-21 10:34N 45°25' W 073°40'8 7.6
2014-Jul-21 09:34N 45°22' W 073°50'5 4.5
2014-Jul-21 08:33N 45°19' W 073°55'1 0.8
2014-Jul-21 07:34N 45°18' W 073°56'2 2.3
2014-Jul-21 06:34N 45°16' W 073°57'9 9.3
2014-Jul-21 05:33N 45°14' W 074°10'1110.8
2014-Jul-21 04:34N 45°09' W 074°23'9 8.6
2014-Jul-21 03:33N 45°03' W 074°33'83 7.3
2014-Jul-20 16:07N 44°14' W 076°07'610.8
2014-Jul-20 15:33N 44°12' W 076°15'1010.4
2014-Jul-20 14:34N 44°05' W 076°25'165 5.7
2014-Jul-19 09:31N 42°37' W 079°38'1212.0
2014-Jul-19 08:34N 42°31' W 079°51'1211.8
2014-Jul-19 07:34N 42°25' W 080°05'1212.0
2014-Jul-19 06:34N 42°21' W 080°20'1211.6
2014-Jul-19 05:31N 42°17' W 080°36'260 7.4
2014-Jul-17 18:32N 45°56' W 083°52'11 9.7
2014-Jul-17 17:26N 46°04' W 084°01'36 4.0
2014-Jul-17 08:22N 46°31' W 084°38'911.5
2014-Jul-17 07:33N 46°38' W 084°46'  
2014-Jul-14 08:25N 46°50' W 085°05'1011.4
2014-Jul-14 07:33N 46°44' W 084°53'2311.3
2014-Jul-14 05:33N 46°27' W 084°30'293 7.1
2014-Jul-12 12:04N 42°12' W 081°08'612.3
2014-Jul-12 11:33N 42°15' W 081°00'1212.2
2014-Jul-12 10:34N 42°18' W 080°45'2512.2
2014-Jul-12 08:33N 42°27' W 080°14'1211.2
2014-Jul-12 07:29N 42°34' W 079°60'1111.8
2014-Jul-12 06:34N 42°44' W 080°02'3 3.1
2014-Jul-12 05:34N 42°47' W 080°05'0 0.0
2014-Jul-12 04:34N 42°47' W 080°05'0 0.0
2014-Jul-12 03:34N 42°47' W 080°05'0 0.0
2014-Jul-12 02:34N 42°47' W 080°05'0 0.0
2014-Jul-12 01:34N 42°47' W 080°05'0 0.0
2014-Jul-12 00:34N 42°47' W 080°05'0 0.0
2014-Jul-11 23:34N 42°47' W 080°05'  

Dump ship's entire track history